createdAt,value
2023-01-04T00:00:19.655Z,7.21
2023-01-04T00:05:23.700Z,7.22
2023-01-04T00:10:27.941Z,7.27
2023-01-04T00:15:32.092Z,7.31
2023-01-04T00:20:36.168Z,7.28
2023-01-04T00:25:40.332Z,7.33
2023-01-04T00:30:44.527Z,7.37
2023-01-04T00:35:46.914Z,7.46
2023-01-04T00:40:50.965Z,7.50
2023-01-04T00:45:53.336Z,7.52
2023-01-04T00:50:57.426Z,7.61
2023-01-04T00:55:59.662Z,7.67
2023-01-04T01:01:03.838Z,7.74
2023-01-04T01:06:06.074Z,7.73
2023-01-04T01:11:10.241Z,7.68
2023-01-04T01:16:14.542Z,7.63
2023-01-04T01:21:18.587Z,7.59
2023-01-04T01:26:22.727Z,7.61
2023-01-04T01:31:26.948Z,7.64
2023-01-04T01:36:31.047Z,7.58
2023-01-04T01:41:35.359Z,7.54
2023-01-04T01:46:39.509Z,7.49
2023-01-04T01:51:43.565Z,7.44
2023-01-04T01:56:47.711Z,7.41
2023-01-04T02:01:51.960Z,7.42
2023-01-04T02:06:56.033Z,7.40
2023-01-04T02:12:00.208Z,7.40
2023-01-04T02:17:04.343Z,7.39
2023-01-04T02:22:08.539Z,7.42
2023-01-04T02:27:12.676Z,7.42
2023-01-04T02:32:16.871Z,7.35
2023-01-04T02:37:21.061Z,7.34
2023-01-04T02:42:25.171Z,7.30
2023-01-04T02:47:29.334Z,7.31
2023-01-04T02:52:31.609Z,7.28
2023-01-04T02:57:35.839Z,7.30
2023-01-04T03:02:38.350Z,7.34
2023-01-04T03:07:42.214Z,7.36
2023-01-04T03:12:44.477Z,7.37
2023-01-04T03:17:48.651Z,7.38
2023-01-04T03:22:52.813Z,7.40
2023-01-04T03:27:56.985Z,7.44
2023-01-04T03:33:01.130Z,7.47
2023-01-04T03:38:05.293Z,7.50
2023-01-04T03:43:09.448Z,7.54
2023-01-04T03:48:13.626Z,7.61
2023-01-04T03:53:17.808Z,7.73
2023-01-04T03:58:21.950Z,7.81
2023-01-04T04:03:26.188Z,7.83
2023-01-04T04:08:30.329Z,7.85
2023-01-04T04:13:34.414Z,7.89
2023-01-04T04:18:38.606Z,7.92
2023-01-04T04:23:42.767Z,7.91
2023-01-04T04:28:46.933Z,7.91
2023-01-04T04:33:51.089Z,7.93
2023-01-04T04:38:55.211Z,7.93
2023-01-04T04:43:59.409Z,7.91
2023-01-04T04:49:03.552Z,7.95
2023-01-04T04:54:07.757Z,7.97
2023-01-04T04:59:09.968Z,7.99
2023-01-04T05:04:14.181Z,7.98
2023-01-04T05:09:18.305Z,8.03
2023-01-04T05:14:22.457Z,8.09
2023-01-04T05:19:26.663Z,8.13
2023-01-04T05:24:30.819Z,8.18
2023-01-04T05:29:35.012Z,8.17
2023-01-04T05:34:39.133Z,8.23
2023-01-04T05:39:43.284Z,8.32
2023-01-04T05:44:47.449Z,8.41
2023-01-04T05:49:51.605Z,8.48
2023-01-04T05:54:55.799Z,8.55
2023-01-04T05:59:59.938Z,8.56
2023-01-04T06:05:04.098Z,8.58
2023-01-04T06:10:08.273Z,8.63
2023-01-04T06:15:12.467Z,8.70
2023-01-04T06:20:16.595Z,8.72
2023-01-04T06:25:20.776Z,8.82
2023-01-04T06:30:25.059Z,8.88
2023-01-04T06:35:29.079Z,8.92
2023-01-04T06:40:33.243Z,8.97
2023-01-04T06:45:35.535Z,8.98
2023-01-04T06:50:39.678Z,8.90
2023-01-04T06:55:41.948Z,8.88
2023-01-04T07:00:46.100Z,8.84
2023-01-04T07:05:50.274Z,8.84
2023-01-04T07:10:54.440Z,8.83
2023-01-04T07:15:58.690Z,8.95
2023-01-04T07:21:02.759Z,9.04
2023-01-04T07:26:06.907Z,9.12
2023-01-04T07:31:11.241Z,9.09
2023-01-04T07:36:15.242Z,9.09
2023-01-04T07:41:19.426Z,9.02
2023-01-04T07:46:23.601Z,9.04
2023-01-04T07:51:27.709Z,9.02
2023-01-04T07:56:31.844Z,9.04
2023-01-04T08:01:36.126Z,9.11
2023-01-04T08:06:40.211Z,9.14
2023-01-04T08:11:44.363Z,9.22
2023-01-04T08:16:48.542Z,9.24
2023-01-04T08:21:52.660Z,9.26
2023-01-04T08:26:56.847Z,9.26
2023-01-04T08:32:01.034Z,9.28
2023-01-04T08:37:05.168Z,9.31
2023-01-04T08:42:20.251Z,9.44
2023-01-04T08:47:11.648Z,9.54
2023-01-04T08:52:15.790Z,9.69
2023-01-04T08:57:18.035Z,9.88
2023-01-04T09:02:22.392Z,10.03
2023-01-04T09:07:26.383Z,10.20
2023-01-04T09:12:30.546Z,10.24
2023-01-04T09:17:34.660Z,10.29
2023-01-04T09:22:38.876Z,10.26
2023-01-04T09:27:43.006Z,10.30
2023-01-04T09:32:47.145Z,10.35
2023-01-04T09:37:51.305Z,10.38
2023-01-04T09:43:20.584Z,10.56
2023-01-04T09:47:59.681Z,10.56
2023-01-04T09:53:03.849Z,10.60
2023-01-04T09:58:07.988Z,10.63
2023-01-04T10:03:12.323Z,10.61
2023-01-04T10:08:16.293Z,10.76
2023-01-04T10:13:20.429Z,10.74
2023-01-04T10:23:28.773Z,10.83
2023-01-04T10:33:37.102Z,10.91
2023-01-04T10:38:41.281Z,10.84
2023-01-04T10:44:09.818Z,10.78
2023-01-04T10:48:47.707Z,10.69
2023-01-04T10:53:51.833Z,10.67
2023-01-04T10:58:54.114Z,10.67
2023-01-04T11:03:58.261Z,10.70
2023-01-04T11:09:02.442Z,10.74
2023-01-04T11:14:06.612Z,10.76
2023-01-04T11:19:10.783Z,10.83
2023-01-04T11:24:31.487Z,10.87
2023-01-04T11:29:19.100Z,10.96
2023-01-04T11:34:23.236Z,10.99
2023-01-04T11:39:27.410Z,11.00
2023-01-04T11:44:31.582Z,11.02
2023-01-04T11:49:35.731Z,11.05
2023-01-04T11:54:39.914Z,11.08
2023-01-04T11:59:44.082Z,11.08
2023-01-04T12:04:48.211Z,11.12
2023-01-04T12:09:52.395Z,11.07
2023-01-04T12:14:56.679Z,11.20
2023-01-04T12:20:00.741Z,11.23
2023-01-04T12:25:04.913Z,11.15
2023-01-04T12:30:09.063Z,11.09
2023-01-04T12:35:17.202Z,11.04
2023-01-04T12:40:17.357Z,11.04
2023-01-04T12:45:19.650Z,10.99
2023-01-04T12:50:23.786Z,10.97
2023-01-04T12:55:26.054Z,11.01
2023-01-04T13:00:30.254Z,11.03
2023-01-04T13:05:57.213Z,11.06
2023-01-04T13:10:36.688Z,11.12
2023-01-04T13:15:40.854Z,11.09
2023-01-04T13:20:44.951Z,11.11
2023-01-04T13:25:49.132Z,11.21
2023-01-04T13:30:53.315Z,11.30
2023-01-04T13:35:57.439Z,11.35
2023-01-04T13:41:01.628Z,11.33
2023-01-04T13:46:06.741Z,11.34
2023-01-04T13:51:09.906Z,11.34
2023-01-04T13:56:14.102Z,11.37
2023-01-04T14:01:18.380Z,11.42
2023-01-04T14:06:22.425Z,11.49
2023-01-04T14:11:26.589Z,11.52
2023-01-04T14:16:30.759Z,11.53
2023-01-04T14:21:34.917Z,11.52
2023-01-04T14:26:39.087Z,11.52
2023-01-04T14:31:43.283Z,11.50
2023-01-04T14:36:47.417Z,11.43
2023-01-04T14:41:49.643Z,11.36
2023-01-04T14:46:53.921Z,11.34
2023-01-04T14:51:56.073Z,11.32
2023-01-04T14:57:00.226Z,11.34
2023-01-04T15:02:04.534Z,11.39
2023-01-04T15:07:08.600Z,11.46
2023-01-04T15:12:12.722Z,11.55
2023-01-04T15:17:16.906Z,11.51
2023-01-04T15:22:21.031Z,11.51
2023-01-04T15:27:30.817Z,11.58
2023-01-04T15:32:29.355Z,11.77
2023-01-04T15:37:33.523Z,11.83
2023-01-04T15:42:37.670Z,11.93
2023-01-04T15:47:41.879Z,11.91
2023-01-04T15:52:46.071Z,11.90
2023-01-04T15:57:50.218Z,11.84
2023-01-04T16:02:54.485Z,11.86
2023-01-04T16:07:58.484Z,11.89
2023-01-04T16:13:02.679Z,11.88
2023-01-04T16:18:06.857Z,11.89
2023-01-04T16:23:10.963Z,11.89
2023-01-04T16:28:15.167Z,11.89
2023-01-04T16:33:19.317Z,11.98
2023-01-04T16:38:21.589Z,11.99
2023-01-04T16:43:25.753Z,11.96
2023-01-04T16:48:28.169Z,11.89
2023-01-04T16:53:32.172Z,11.79
2023-01-04T16:58:36.316Z,11.66
2023-01-04T17:03:40.617Z,11.55
2023-01-04T17:08:44.663Z,11.43
2023-01-04T17:13:48.795Z,11.29
2023-01-04T17:18:52.966Z,11.19
2023-01-04T17:23:57.127Z,11.11
2023-01-04T17:29:01.277Z,11.08
2023-01-04T17:34:05.440Z,11.07
2023-01-04T17:39:09.610Z,11.05
2023-01-04T17:44:13.781Z,11.06
2023-01-04T17:49:22.478Z,11.28
2023-01-04T17:54:22.075Z,11.30
2023-01-04T17:59:26.268Z,11.36
2023-01-04T18:04:30.431Z,11.41
2023-01-04T18:09:34.599Z,11.39
2023-01-04T18:14:38.719Z,11.39
2023-01-04T18:19:46.227Z,11.37
2023-01-04T18:24:47.129Z,11.43
2023-01-04T18:29:51.466Z,11.38
2023-01-04T18:34:53.495Z,11.37
2023-01-04T18:39:57.633Z,11.33
2023-01-04T18:44:59.937Z,11.36
2023-01-04T18:50:04.144Z,11.40
2023-01-04T18:55:08.379Z,11.40
2023-01-04T19:00:12.412Z,11.39
2023-01-04T19:05:16.576Z,11.42
2023-01-04T19:10:20.737Z,11.39
2023-01-04T19:15:24.882Z,11.38
2023-01-04T19:20:29.061Z,11.40
2023-01-04T19:25:33.251Z,11.46
2023-01-04T19:30:37.466Z,11.44
2023-01-04T19:35:41.540Z,11.43
2023-01-04T19:40:45.708Z,11.41
2023-01-04T19:45:49.969Z,11.39
2023-01-04T19:50:53.998Z,11.48
2023-01-04T19:55:58.201Z,11.46
2023-01-04T20:01:02.416Z,11.48
2023-01-04T20:06:06.517Z,11.50
2023-01-04T20:11:10.676Z,11.54
2023-01-04T20:16:14.867Z,11.59
2023-01-04T20:21:18.978Z,11.55
2023-01-04T20:26:23.164Z,11.55
2023-01-04T20:31:25.548Z,11.53
2023-01-04T20:36:29.577Z,11.52
2023-01-04T20:41:31.869Z,11.51
2023-01-04T20:46:36.075Z,11.46
2023-01-04T20:51:40.187Z,11.45
2023-01-04T20:56:44.312Z,11.41
2023-01-04T21:01:48.647Z,11.40
2023-01-04T21:06:52.706Z,11.45
2023-01-04T21:11:58.603Z,11.43
2023-01-04T21:17:01.138Z,11.44
2023-01-04T21:22:05.128Z,11.48
2023-01-04T21:27:09.291Z,11.48
2023-01-04T21:32:13.438Z,11.43
2023-01-04T21:37:17.629Z,11.40
2023-01-04T21:42:21.764Z,11.40
2023-01-04T21:47:25.958Z,11.35
2023-01-04T21:52:30.121Z,11.35
2023-01-04T21:57:34.266Z,11.33
2023-01-04T22:02:38.531Z,11.35
2023-01-04T22:07:42.579Z,11.32
2023-01-04T22:12:46.703Z,11.29
2023-01-04T22:17:50.903Z,11.31
2023-01-04T22:22:55.033Z,11.31
2023-01-04T22:27:57.350Z,11.26
2023-01-04T22:33:01.482Z,11.28
2023-01-04T22:38:05.636Z,11.23
2023-01-04T22:43:09.813Z,11.23
2023-01-04T22:48:14.011Z,11.23
2023-01-04T22:53:18.166Z,11.18
2023-01-04T22:58:22.321Z,11.20
2023-01-04T23:03:26.584Z,11.15
2023-01-04T23:08:30.631Z,11.14
2023-01-04T23:13:34.777Z,11.16
2023-01-04T23:18:38.911Z,11.16
2023-01-04T23:23:45.116Z,11.16
2023-01-04T23:28:47.374Z,11.11
2023-01-04T23:33:51.436Z,11.04
2023-01-04T23:38:55.563Z,11.01
2023-01-04T23:43:59.741Z,10.99
2023-01-04T23:49:03.937Z,10.91
2023-01-04T23:54:08.061Z,10.81
2023-01-04T23:59:12.253Z,10.86
